sensor_id;sensor_type;location;lat;lon;timestamp;pressure;altitude;pressure_sealevel;temperature;humidity
34566;BME280;20803;42.676;26.348;2022-10-26T00:02:16;98809.56;;;20.57;47.58
34566;BME280;20803;42.676;26.348;2022-10-26T00:04:41;98810.81;;;20.56;47.93
34566;BME280;20803;42.676;26.348;2022-10-26T00:07:07;98801.09;;;20.57;48.04
34566;BME280;20803;42.676;26.348;2022-10-26T00:09:32;98806.38;;;20.41;48.55
34566;BME280;20803;42.676;26.348;2022-10-26T00:11:58;98805.41;;;20.44;48.25
34566;BME280;20803;42.676;26.348;2022-10-26T00:14:24;98808.09;;;20.38;48.54
34566;BME280;20803;42.676;26.348;2022-10-26T00:16:50;98807.44;;;20.43;48.32
34566;BME280;20803;42.676;26.348;2022-10-26T00:19:15;98813.72;;;20.38;48.21
34566;BME280;20803;42.676;26.348;2022-10-26T00:21:40;98801.06;;;20.34;48.31
34566;BME280;20803;42.676;26.348;2022-10-26T00:24:06;98814.22;;;20.27;48.12
34566;BME280;20803;42.676;26.348;2022-10-26T00:26:31;98812.06;;;20.22;48.42
34566;BME280;20803;42.676;26.348;2022-10-26T00:28:57;98818.81;;;20.16;48.37
34566;BME280;20803;42.676;26.348;2022-10-26T00:31:23;98819.47;;;20.11;48.79
34566;BME280;20803;42.676;26.348;2022-10-26T00:33:55;98819.97;;;20.00;49.17
34566;BME280;20803;42.676;26.348;2022-10-26T00:36:21;98833.44;;;19.96;49.19
34566;BME280;20803;42.676;26.348;2022-10-26T00:38:51;98835.97;;;19.94;49.38
34566;BME280;20803;42.676;26.348;2022-10-26T00:41:20;98842.25;;;19.80;49.17
34566;BME280;20803;42.676;26.348;2022-10-26T00:43:47;98831.75;;;19.71;50.01
34566;BME280;20803;42.676;26.348;2022-10-26T00:46:16;98835.97;;;19.67;49.85
34566;BME280;20803;42.676;26.348;2022-10-26T00:48:50;98832.25;;;19.70;50.02
34566;BME280;20803;42.676;26.348;2022-10-26T00:51:37;98830.66;;;19.69;49.82
34566;BME280;20803;42.676;26.348;2022-10-26T00:54:09;98832.41;;;19.57;49.82
34566;BME280;20803;42.676;26.348;2022-10-26T00:56:36;98815.94;;;19.65;49.91
34566;BME280;20803;42.676;26.348;2022-10-26T00:59:05;98822.97;;;19.60;49.94
34566;BME280;20803;42.676;26.348;2022-10-26T01:01:34;98821.56;;;19.74;49.10
34566;BME280;20803;42.676;26.348;2022-10-26T01:04:01;98825.75;;;19.97;48.08
34566;BME280;20803;42.676;26.348;2022-10-26T01:06:28;98828.09;;;19.89;48.09
34566;BME280;20803;42.676;26.348;2022-10-26T01:08:54;98828.09;;;19.89;47.45
34566;BME280;20803;42.676;26.348;2022-10-26T01:11:20;98835.63;;;19.83;47.82
34566;BME280;20803;42.676;26.348;2022-10-26T01:13:47;98839.56;;;19.85;47.79
34566;BME280;20803;42.676;26.348;2022-10-26T01:26:50;98836.59;;;19.71;47.49
34566;BME280;20803;42.676;26.348;2022-10-26T01:32:08;98851.03;;;19.64;47.57
34566;BME280;20803;42.676;26.348;2022-10-26T01:34:42;98841.63;;;19.58;47.75
34566;BME280;20803;42.676;26.348;2022-10-26T01:37:29;98841.94;;;19.51;48.08
34566;BME280;20803;42.676;26.348;2022-10-26T01:40:06;98833.16;;;19.49;48.04
34566;BME280;20803;42.676;26.348;2022-10-26T01:42:33;98844.44;;;19.49;47.61
34566;BME280;20803;42.676;26.348;2022-10-26T01:45:06;98839.44;;;19.62;47.54
34566;BME280;20803;42.676;26.348;2022-10-26T01:47:35;98847.72;;;19.65;47.27
34566;BME280;20803;42.676;26.348;2022-10-26T01:50:03;98840.69;;;19.61;47.42
34566;BME280;20803;42.676;26.348;2022-10-26T01:52:30;98856.50;;;19.58;47.92
34566;BME280;20803;42.676;26.348;2022-10-26T01:55:00;98864.50;;;19.51;48.29
34566;BME280;20803;42.676;26.348;2022-10-26T01:57:25;98861.97;;;19.71;47.41
34566;BME280;20803;42.676;26.348;2022-10-26T02:00:05;98865.59;;;19.62;48.20
34566;BME280;20803;42.676;26.348;2022-10-26T02:08:17;98855.69;;;19.30;48.71
34566;BME280;20803;42.676;26.348;2022-10-26T02:17:00;98858.47;;;19.21;48.92
34566;BME280;20803;42.676;26.348;2022-10-26T02:19:32;98860.66;;;19.08;50.00
34566;BME280;20803;42.676;26.348;2022-10-26T02:24:42;98874.03;;;18.86;50.86
34566;BME280;20803;42.676;26.348;2022-10-26T02:30:07;98875.28;;;18.85;50.25
34566;BME280;20803;42.676;26.348;2022-10-26T02:32:36;98879.69;;;18.86;49.91
34566;BME280;20803;42.676;26.348;2022-10-26T02:35:05;98882.50;;;18.86;50.05
34566;BME280;20803;42.676;26.348;2022-10-26T02:37:32;98892.06;;;18.88;50.05
34566;BME280;20803;42.676;26.348;2022-10-26T02:40:01;98893.94;;;18.91;50.06
34566;BME280;20803;42.676;26.348;2022-10-26T02:42:28;98900.22;;;18.95;49.84
34566;BME280;20803;42.676;26.348;2022-10-26T02:44:58;98900.84;;;18.99;50.05
34566;BME280;20803;42.676;26.348;2022-10-26T02:47:25;98898.19;;;18.96;49.47
34566;BME280;20803;42.676;26.348;2022-10-26T02:49:52;98908.16;;;18.88;50.26
34566;BME280;20803;42.676;26.348;2022-10-26T02:52:27;98904.53;;;18.78;50.15
34566;BME280;20803;42.676;26.348;2022-10-26T02:55:17;98918.94;;;18.80;50.33
34566;BME280;20803;42.676;26.348;2022-10-26T02:57:46;98913.53;;;18.64;50.73
34566;BME280;20803;42.676;26.348;2022-10-26T03:00:16;98920.25;;;18.57;51.32
34566;BME280;20803;42.676;26.348;2022-10-26T03:02:43;98929.47;;;18.58;51.27
34566;BME280;20803;42.676;26.348;2022-10-26T03:05:24;98937.94;;;18.67;51.31
34566;BME280;20803;42.676;26.348;2022-10-26T03:07:50;98943.75;;;18.73;51.44
34566;BME280;20803;42.676;26.348;2022-10-26T03:10:16;98948.41;;;18.67;52.07
34566;BME280;20803;42.676;26.348;2022-10-26T03:12:42;98947.00;;;18.62;52.35
34566;BME280;20803;42.676;26.348;2022-10-26T03:15:07;98947.94;;;18.59;52.40
34566;BME280;20803;42.676;26.348;2022-10-26T03:17:33;98943.00;;;18.50;52.76
34566;BME280;20803;42.676;26.348;2022-10-26T03:19:58;98949.16;;;18.36;53.61
34566;BME280;20803;42.676;26.348;2022-10-26T03:22:24;98960.69;;;18.29;54.13
34566;BME280;20803;42.676;26.348;2022-10-26T03:24:49;98954.09;;;18.23;54.83
34566;BME280;20803;42.676;26.348;2022-10-26T03:27:15;98958.59;;;18.20;55.32
34566;BME280;20803;42.676;26.348;2022-10-26T03:29:40;98952.88;;;18.11;56.38
34566;BME280;20803;42.676;26.348;2022-10-26T03:32:06;98945.19;;;18.03;56.99
34566;BME280;20803;42.676;26.348;2022-10-26T03:34:31;98948.38;;;17.92;58.17
34566;BME280;20803;42.676;26.348;2022-10-26T03:36:57;98952.69;;;17.84;59.01
34566;BME280;20803;42.676;26.348;2022-10-26T03:39:22;98953.72;;;17.77;59.44
34566;BME280;20803;42.676;26.348;2022-10-26T03:41:48;98960.28;;;17.74;60.13
34566;BME280;20803;42.676;26.348;2022-10-26T03:44:13;98959.38;;;17.65;61.13
34566;BME280;20803;42.676;26.348;2022-10-26T03:46:38;98962.75;;;17.60;61.40
34566;BME280;20803;42.676;26.348;2022-10-26T03:49:04;98959.81;;;17.63;61.52
34566;BME280;20803;42.676;26.348;2022-10-26T03:51:30;98966.38;;;17.60;62.19
34566;BME280;20803;42.676;26.348;2022-10-26T03:53:55;98970.53;;;17.56;62.70
34566;BME280;20803;42.676;26.348;2022-10-26T03:56:21;98983.09;;;17.51;63.47
34566;BME280;20803;42.676;26.348;2022-10-26T03:58:46;98978.06;;;17.46;64.20
34566;BME280;20803;42.676;26.348;2022-10-26T04:01:12;98992.34;;;17.39;65.54
34566;BME280;20803;42.676;26.348;2022-10-26T04:03:37;98991.69;;;17.35;65.56
34566;BME280;20803;42.676;26.348;2022-10-26T04:06:03;99002.13;;;17.34;65.79
34566;BME280;20803;42.676;26.348;2022-10-26T04:08:28;98989.66;;;17.23;66.94
34566;BME280;20803;42.676;26.348;2022-10-26T04:10:54;98989.88;;;17.28;66.52
34566;BME280;20803;42.676;26.348;2022-10-26T04:13:19;98990.78;;;17.38;66.32
34566;BME280;20803;42.676;26.348;2022-10-26T04:15:45;98981.22;;;17.35;66.17
34566;BME280;20803;42.676;26.348;2022-10-26T04:18:10;98989.31;;;17.33;67.05
34566;BME280;20803;42.676;26.348;2022-10-26T04:20:37;98987.72;;;17.45;66.09
34566;BME280;20803;42.676;26.348;2022-10-26T04:23:06;98993.59;;;17.38;66.86
34566;BME280;20803;42.676;26.348;2022-10-26T04:25:32;98992.25;;;17.30;67.88
34566;BME280;20803;42.676;26.348;2022-10-26T04:27:58;98994.59;;;17.44;67.02
34566;BME280;20803;42.676;26.348;2022-10-26T04:30:24;98995.50;;;17.41;67.72
34566;BME280;20803;42.676;26.348;2022-10-26T04:32:50;98994.13;;;17.33;68.21
34566;BME280;20803;42.676;26.348;2022-10-26T04:35:16;99003.94;;;17.28;68.82
34566;BME280;20803;42.676;26.348;2022-10-26T04:37:41;98993.25;;;17.23;69.35
34566;BME280;20803;42.676;26.348;2022-10-26T04:40:07;98999.09;;;17.16;70.38
34566;BME280;20803;42.676;26.348;2022-10-26T04:42:52;99003.63;;;17.14;70.71
34566;BME280;20803;42.676;26.348;2022-10-26T04:45:18;99009.22;;;17.14;70.82
34566;BME280;20803;42.676;26.348;2022-10-26T04:47:44;99015.50;;;17.18;70.69
34566;BME280;20803;42.676;26.348;2022-10-26T04:50:11;99006.75;;;17.16;71.09
34566;BME280;20803;42.676;26.348;2022-10-26T04:52:36;99013.16;;;17.29;70.40
34566;BME280;20803;42.676;26.348;2022-10-26T04:55:03;99009.75;;;17.47;69.58
34566;BME280;20803;42.676;26.348;2022-10-26T04:57:33;99019.50;;;17.80;67.05
34566;BME280;20803;42.676;26.348;2022-10-26T05:00:00;99025.91;;;18.15;64.68
34566;BME280;20803;42.676;26.348;2022-10-26T05:02:27;99018.59;;;18.39;63.03
34566;BME280;20803;42.676;26.348;2022-10-26T05:04:52;99022.88;;;18.66;60.92
34566;BME280;20803;42.676;26.348;2022-10-26T05:07:18;99025.63;;;18.78;60.50
34566;BME280;20803;42.676;26.348;2022-10-26T05:09:43;99025.03;;;19.23;58.61
34566;BME280;20803;42.676;26.348;2022-10-26T05:12:09;99032.13;;;19.68;55.95
34566;BME280;20803;42.676;26.348;2022-10-26T05:14:34;99034.59;;;19.66;55.45
34566;BME280;20803;42.676;26.348;2022-10-26T05:17:00;99028.41;;;20.07;53.89
34566;BME280;20803;42.676;26.348;2022-10-26T05:19:25;99036.72;;;20.56;52.87
34566;BME280;20803;42.676;26.348;2022-10-26T05:21:50;99040.63;;;20.68;51.56
34566;BME280;20803;42.676;26.348;2022-10-26T05:24:18;99040.59;;;20.86;50.46
34566;BME280;20803;42.676;26.348;2022-10-26T05:26:43;99050.03;;;20.83;50.36
34566;BME280;20803;42.676;26.348;2022-10-26T05:29:09;99050.66;;;20.87;50.58
34566;BME280;20803;42.676;26.348;2022-10-26T05:31:34;99050.56;;;20.54;51.20
34566;BME280;20803;42.676;26.348;2022-10-26T05:34:00;99041.09;;;19.94;53.02
34566;BME280;20803;42.676;26.348;2022-10-26T05:36:25;99048.16;;;20.25;52.63
34566;BME280;20803;42.676;26.348;2022-10-26T05:38:51;99051.22;;;21.19;51.14
34566;BME280;20803;42.676;26.348;2022-10-26T05:41:17;99059.25;;;21.53;48.94
34566;BME280;20803;42.676;26.348;2022-10-26T05:43:42;99051.34;;;21.33;49.72
34566;BME280;20803;42.676;26.348;2022-10-26T05:46:08;99061.53;;;21.40;48.66
34566;BME280;20803;42.676;26.348;2022-10-26T05:48:33;99060.13;;;21.68;47.59
34566;BME280;20803;42.676;26.348;2022-10-26T05:51:00;99069.41;;;21.27;48.77
34566;BME280;20803;42.676;26.348;2022-10-26T05:53:26;99065.88;;;21.83;47.47
34566;BME280;20803;42.676;26.348;2022-10-26T05:55:51;99071.44;;;22.01;47.12
34566;BME280;20803;42.676;26.348;2022-10-26T05:58:17;99081.28;;;21.82;47.21
34566;BME280;20803;42.676;26.348;2022-10-26T06:00:58;99079.06;;;22.34;46.87
34566;BME280;20803;42.676;26.348;2022-10-26T06:03:47;99086.78;;;22.72;45.81
34566;BME280;20803;42.676;26.348;2022-10-26T06:06:17;99078.53;;;22.44;45.50
34566;BME280;20803;42.676;26.348;2022-10-26T06:08:43;99081.00;;;22.27;46.04
34566;BME280;20803;42.676;26.348;2022-10-26T06:11:09;99095.09;;;22.13;46.40
34566;BME280;20803;42.676;26.348;2022-10-26T06:13:34;99088.31;;;22.19;45.83
34566;BME280;20803;42.676;26.348;2022-10-26T06:16:28;99099.25;;;22.26;45.73
34566;BME280;20803;42.676;26.348;2022-10-26T06:19:41;99095.75;;;22.32;45.53
34566;BME280;20803;42.676;26.348;2022-10-26T06:25:15;99110.25;;;22.48;45.45
34566;BME280;20803;42.676;26.348;2022-10-26T06:30:28;99104.66;;;22.39;45.40
34566;BME280;20803;42.676;26.348;2022-10-26T06:32:53;99109.06;;;22.40;45.25
34566;BME280;20803;42.676;26.348;2022-10-26T06:37:55;99134.75;;;22.13;45.29
34566;BME280;20803;42.676;26.348;2022-10-26T06:40:23;99123.81;;;21.97;46.18
34566;BME280;20803;42.676;26.348;2022-10-26T06:42:50;99126.47;;;21.91;46.24
34566;BME280;20803;42.676;26.348;2022-10-26T06:45:16;99130.56;;;21.90;46.17
34566;BME280;20803;42.676;26.348;2022-10-26T06:47:59;99131.47;;;22.05;46.29
34566;BME280;20803;42.676;26.348;2022-10-26T06:50:39;99130.53;;;22.32;45.85
34566;BME280;20803;42.676;26.348;2022-10-26T06:53:20;99137.06;;;22.62;45.16
34566;BME280;20803;42.676;26.348;2022-10-26T06:55:49;99139.31;;;22.34;45.21
34566;BME280;20803;42.676;26.348;2022-10-26T06:58:17;99139.84;;;22.23;46.45
34566;BME280;20803;42.676;26.348;2022-10-26T07:00:44;99143.41;;;22.33;45.91
34566;BME280;20803;42.676;26.348;2022-10-26T07:03:10;99146.19;;;22.42;45.57
34566;BME280;20803;42.676;26.348;2022-10-26T07:05:36;99150.09;;;22.69;45.31
34566;BME280;20803;42.676;26.348;2022-10-26T07:08:01;99159.00;;;22.76;44.58
34566;BME280;20803;42.676;26.348;2022-10-26T07:10:27;99154.06;;;23.00;44.39
34566;BME280;20803;42.676;26.348;2022-10-26T07:12:52;99147.72;;;23.05;43.79
34566;BME280;20803;42.676;26.348;2022-10-26T07:15:18;99155.91;;;22.89;44.33
34566;BME280;20803;42.676;26.348;2022-10-26T07:17:44;99156.22;;;22.67;44.91
34566;BME280;20803;42.676;26.348;2022-10-26T07:20:11;99144.84;;;22.52;45.03
34566;BME280;20803;42.676;26.348;2022-10-26T07:22:36;99159.13;;;22.82;44.54
34566;BME280;20803;42.676;26.348;2022-10-26T07:25:02;99159.47;;;22.98;43.82
34566;BME280;20803;42.676;26.348;2022-10-26T07:27:28;99151.28;;;23.15;44.20
34566;BME280;20803;42.676;26.348;2022-10-26T07:29:53;99159.91;;;23.35;43.84
34566;BME280;20803;42.676;26.348;2022-10-26T07:32:19;99156.78;;;23.63;43.44
34566;BME280;20803;42.676;26.348;2022-10-26T07:34:47;99157.59;;;23.98;42.53
34566;BME280;20803;42.676;26.348;2022-10-26T07:37:12;99151.16;;;24.18;41.81
34566;BME280;20803;42.676;26.348;2022-10-26T07:39:38;99157.56;;;24.13;41.40
34566;BME280;20803;42.676;26.348;2022-10-26T07:42:04;99154.81;;;24.18;41.73
34566;BME280;20803;42.676;26.348;2022-10-26T07:44:29;99168.41;;;24.29;41.06
34566;BME280;20803;42.676;26.348;2022-10-26T07:46:57;99169.09;;;24.09;41.10
34566;BME280;20803;42.676;26.348;2022-10-26T07:49:23;99165.28;;;24.12;42.17
34566;BME280;20803;42.676;26.348;2022-10-26T07:51:48;99168.53;;;24.40;40.95
34566;BME280;20803;42.676;26.348;2022-10-26T07:54:14;99167.06;;;24.45;40.46
34566;BME280;20803;42.676;26.348;2022-10-26T07:56:40;99170.13;;;24.41;40.62
34566;BME280;20803;42.676;26.348;2022-10-26T07:59:05;99167.94;;;24.51;40.36
34566;BME280;20803;42.676;26.348;2022-10-26T08:01:33;99167.72;;;24.54;40.39
34566;BME280;20803;42.676;26.348;2022-10-26T08:03:58;99166.06;;;24.48;40.28
34566;BME280;20803;42.676;26.348;2022-10-26T08:06:26;99174.91;;;24.15;40.82
34566;BME280;20803;42.676;26.348;2022-10-26T08:08:53;99172.03;;;24.30;40.67
34566;BME280;20803;42.676;26.348;2022-10-26T08:11:19;99162.94;;;24.25;40.87
34566;BME280;20803;42.676;26.348;2022-10-26T08:13:44;99170.66;;;24.10;40.50
34566;BME280;20803;42.676;26.348;2022-10-26T08:16:10;99165.63;;;24.00;40.65
34566;BME280;20803;42.676;26.348;2022-10-26T08:18:36;99161.50;;;24.01;40.76
34566;BME280;20803;42.676;26.348;2022-10-26T08:21:06;99167.75;;;24.19;41.03
34566;BME280;20803;42.676;26.348;2022-10-26T08:23:32;99166.06;;;24.48;40.43
34566;BME280;20803;42.676;26.348;2022-10-26T08:25:59;99163.53;;;24.50;39.84
34566;BME280;20803;42.676;26.348;2022-10-26T08:28:26;99173.03;;;24.67;40.26
34566;BME280;20803;42.676;26.348;2022-10-26T08:30:55;99177.16;;;25.07;39.54
34566;BME280;20803;42.676;26.348;2022-10-26T08:33:22;99167.63;;;25.10;38.70
34566;BME280;20803;42.676;26.348;2022-10-26T08:35:59;99174.00;;;25.25;38.74
34566;BME280;20803;42.676;26.348;2022-10-26T08:38:26;99178.53;;;25.37;38.16
34566;BME280;20803;42.676;26.348;2022-10-26T08:40:53;99180.63;;;25.42;38.42
34566;BME280;20803;42.676;26.348;2022-10-26T08:48:55;99188.50;;;25.78;37.89
34566;BME280;20803;42.676;26.348;2022-10-26T08:51:34;99192.91;;;25.54;37.75
34566;BME280;20803;42.676;26.348;2022-10-26T08:54:12;99185.50;;;24.90;39.45
34566;BME280;20803;42.676;26.348;2022-10-26T08:56:42;99185.75;;;25.38;38.05
34566;BME280;20803;42.676;26.348;2022-10-26T08:59:34;99190.06;;;25.28;38.59
34566;BME280;20803;42.676;26.348;2022-10-26T09:02:14;99192.16;;;25.33;38.39
34566;BME280;20803;42.676;26.348;2022-10-26T09:04:40;99188.00;;;25.54;38.14
34566;BME280;20803;42.676;26.348;2022-10-26T09:07:42;99187.72;;;25.52;38.13
34566;BME280;20803;42.676;26.348;2022-10-26T09:12:59;99177.22;;;25.12;38.77
34566;BME280;20803;42.676;26.348;2022-10-26T09:26:13;99182.25;;;25.23;38.40
34566;BME280;20803;42.676;26.348;2022-10-26T09:28:39;99179.91;;;25.21;39.12
34566;BME280;20803;42.676;26.348;2022-10-26T09:31:09;99169.63;;;25.03;39.30
34566;BME280;20803;42.676;26.348;2022-10-26T09:33:39;99172.63;;;24.74;38.79
34566;BME280;20803;42.676;26.348;2022-10-26T09:36:17;99171.75;;;24.68;39.02
34566;BME280;20803;42.676;26.348;2022-10-26T09:38:50;99162.09;;;24.60;39.43
34566;BME280;20803;42.676;26.348;2022-10-26T09:41:28;99162.72;;;25.36;38.56
34566;BME280;20803;42.676;26.348;2022-10-26T09:46:52;99172.09;;;25.42;37.78
34566;BME280;20803;42.676;26.348;2022-10-26T09:49:22;99163.81;;;24.92;38.74
34566;BME280;20803;42.676;26.348;2022-10-26T09:51:54;99158.13;;;24.92;38.55
34566;BME280;20803;42.676;26.348;2022-10-26T09:54:20;99153.72;;;24.91;38.72
34566;BME280;20803;42.676;26.348;2022-10-26T09:56:49;99157.16;;;25.01;38.29
34566;BME280;20803;42.676;26.348;2022-10-26T09:59:17;99155.91;;;25.28;37.90
34566;BME280;20803;42.676;26.348;2022-10-26T10:01:44;99155.69;;;25.31;38.00
34566;BME280;20803;42.676;26.348;2022-10-26T10:04:15;99153.00;;;25.22;37.98
34566;BME280;20803;42.676;26.348;2022-10-26T10:06:43;99158.84;;;25.13;37.94
34566;BME280;20803;42.676;26.348;2022-10-26T10:14:08;99145.59;;;24.84;38.26
34566;BME280;20803;42.676;26.348;2022-10-26T10:16:37;99137.16;;;24.90;38.52
34566;BME280;20803;42.676;26.348;2022-10-26T10:19:02;99144.38;;;25.11;38.20
34566;BME280;20803;42.676;26.348;2022-10-26T10:21:39;99154.44;;;25.38;38.04
34566;BME280;20803;42.676;26.348;2022-10-26T10:24:31;99143.06;;;25.38;38.24
34566;BME280;20803;42.676;26.348;2022-10-26T10:27:00;99147.56;;;25.50;37.52
34566;BME280;20803;42.676;26.348;2022-10-26T10:29:28;99141.69;;;25.28;38.16
34566;BME280;20803;42.676;26.348;2022-10-26T10:31:59;99149.00;;;25.60;37.28
34566;BME280;20803;42.676;26.348;2022-10-26T10:34:25;99146.75;;;25.70;37.92
34566;BME280;20803;42.676;26.348;2022-10-26T10:36:51;99139.75;;;25.71;37.70
34566;BME280;20803;42.676;26.348;2022-10-26T10:39:45;99138.38;;;25.92;36.99
34566;BME280;20803;42.676;26.348;2022-10-26T10:42:20;99147.00;;;26.03;36.48
34566;BME280;20803;42.676;26.348;2022-10-26T10:44:51;99135.44;;;25.81;36.98
34566;BME280;20803;42.676;26.348;2022-10-26T10:47:21;99142.66;;;25.76;37.11
34566;BME280;20803;42.676;26.348;2022-10-26T10:52:38;99131.81;;;24.97;38.54
34566;BME280;20803;42.676;26.348;2022-10-26T10:55:17;99137.16;;;25.41;38.14
34566;BME280;20803;42.676;26.348;2022-10-26T11:00:27;99132.28;;;25.73;37.16
34566;BME280;20803;42.676;26.348;2022-10-26T11:08:45;99120.00;;;25.62;36.39
34566;BME280;20803;42.676;26.348;2022-10-26T11:11:20;99123.38;;;25.34;36.57
34566;BME280;20803;42.676;26.348;2022-10-26T11:14:09;99121.16;;;25.50;36.21
34566;BME280;20803;42.676;26.348;2022-10-26T11:16:39;99118.56;;;25.46;34.62
34566;BME280;20803;42.676;26.348;2022-10-26T11:19:27;99122.78;;;25.25;35.17
34566;BME280;20803;42.676;26.348;2022-10-26T11:21:55;99130.63;;;25.35;35.15
34566;BME280;20803;42.676;26.348;2022-10-26T11:32:20;99116.50;;;25.72;33.94
34566;BME280;20803;42.676;26.348;2022-10-26T11:43:04;99118.81;;;25.74;34.40
34566;BME280;20803;42.676;26.348;2022-10-26T11:45:37;99118.72;;;26.00;33.22
34566;BME280;20803;42.676;26.348;2022-10-26T11:48:31;99121.03;;;25.96;33.49
34566;BME280;20803;42.676;26.348;2022-10-26T11:50:58;99119.41;;;25.83;33.73
34566;BME280;20803;42.676;26.348;2022-10-26T11:53:27;99119.41;;;25.52;34.26
34566;BME280;20803;42.676;26.348;2022-10-26T11:55:57;99115.84;;;26.31;32.80
34566;BME280;20803;42.676;26.348;2022-10-26T11:58:25;99114.28;;;26.36;32.15
34566;BME280;20803;42.676;26.348;2022-10-26T12:00:54;99114.97;;;26.19;32.36
34566;BME280;20803;42.676;26.348;2022-10-26T12:03:27;99115.41;;;26.49;32.44
34566;BME280;20803;42.676;26.348;2022-10-26T12:05:55;99119.56;;;26.59;32.53
34566;BME280;20803;42.676;26.348;2022-10-26T12:08:30;99117.16;;;25.99;32.17
34566;BME280;20803;42.676;26.348;2022-10-26T12:11:38;99107.41;;;25.74;32.63
34566;BME280;20803;42.676;26.348;2022-10-26T12:14:45;99110.56;;;25.50;33.36
34566;BME280;20803;42.676;26.348;2022-10-26T12:22:37;99114.06;;;25.34;33.24
34566;BME280;20803;42.676;26.348;2022-10-26T12:37:57;99102.63;;;25.02;33.57
34566;BME280;20803;42.676;26.348;2022-10-26T12:40:42;99109.22;;;24.68;33.55
34566;BME280;20803;42.676;26.348;2022-10-26T12:45:44;99110.09;;;24.54;33.32
34566;BME280;20803;42.676;26.348;2022-10-26T12:48:38;99107.41;;;24.45;33.62
34566;BME280;20803;42.676;26.348;2022-10-26T12:56:56;99112.41;;;24.96;34.10
34566;BME280;20803;42.676;26.348;2022-10-26T12:59:49;99112.91;;;24.94;33.53
34566;BME280;20803;42.676;26.348;2022-10-26T13:07:48;99114.47;;;24.75;33.02
34566;BME280;20803;42.676;26.348;2022-10-26T13:10:20;99120.72;;;24.79;32.76
34566;BME280;20803;42.676;26.348;2022-10-26T13:12:55;99122.00;;;24.78;33.86
34566;BME280;20803;42.676;26.348;2022-10-26T13:18:16;99119.56;;;25.12;33.89
34566;BME280;20803;42.676;26.348;2022-10-26T13:21:09;99117.66;;;25.29;32.97
34566;BME280;20803;42.676;26.348;2022-10-26T13:23:42;99111.25;;;25.39;32.35
34566;BME280;20803;42.676;26.348;2022-10-26T13:26:16;99116.06;;;25.28;33.09
34566;BME280;20803;42.676;26.348;2022-10-26T13:36:43;99121.81;;;25.08;33.90
34566;BME280;20803;42.676;26.348;2022-10-26T13:39:37;99120.81;;;24.64;34.52
34566;BME280;20803;42.676;26.348;2022-10-26T13:42:04;99115.84;;;24.59;34.61
34566;BME280;20803;42.676;26.348;2022-10-26T13:44:40;99129.06;;;24.07;35.32
34566;BME280;20803;42.676;26.348;2022-10-26T13:47:13;99124.53;;;24.15;34.88
34566;BME280;20803;42.676;26.348;2022-10-26T13:49:52;99119.63;;;23.96;35.43
34566;BME280;20803;42.676;26.348;2022-10-26T13:52:28;99129.00;;;24.02;35.71
34566;BME280;20803;42.676;26.348;2022-10-26T13:55:00;99131.63;;;24.05;34.72
34566;BME280;20803;42.676;26.348;2022-10-26T13:57:35;99134.44;;;23.70;36.05
34566;BME280;20803;42.676;26.348;2022-10-26T14:00:18;99133.84;;;23.81;35.04
34566;BME280;20803;42.676;26.348;2022-10-26T14:02:44;99130.59;;;23.88;35.25
34566;BME280;20803;42.676;26.348;2022-10-26T14:05:12;99140.75;;;23.95;35.67
34566;BME280;20803;42.676;26.348;2022-10-26T14:07:48;99146.38;;;23.89;35.32
34566;BME280;20803;42.676;26.348;2022-10-26T14:10:37;99148.50;;;23.79;35.34
34566;BME280;20803;42.676;26.348;2022-10-26T14:13:12;99150.31;;;23.77;35.50
34566;BME280;20803;42.676;26.348;2022-10-26T14:15:42;99146.91;;;23.58;35.40
34566;BME280;20803;42.676;26.348;2022-10-26T14:18:25;99148.66;;;23.56;35.56
34566;BME280;20803;42.676;26.348;2022-10-26T14:21:02;99154.31;;;23.56;35.75
34566;BME280;20803;42.676;26.348;2022-10-26T14:23:35;99148.47;;;23.59;35.53
34566;BME280;20803;42.676;26.348;2022-10-26T14:26:02;99154.09;;;23.44;36.01
34566;BME280;20803;42.676;26.348;2022-10-26T14:28:29;99152.75;;;23.40;35.61
34566;BME280;20803;42.676;26.348;2022-10-26T14:33:46;99155.66;;;23.31;35.76
34566;BME280;20803;42.676;26.348;2022-10-26T14:36:12;99152.84;;;23.31;35.76
34566;BME280;20803;42.676;26.348;2022-10-26T14:38:43;99161.63;;;23.18;35.99
34566;BME280;20803;42.676;26.348;2022-10-26T14:41:10;99159.31;;;23.17;35.77
34566;BME280;20803;42.676;26.348;2022-10-26T14:43:38;99157.91;;;22.97;36.18
34566;BME280;20803;42.676;26.348;2022-10-26T14:46:04;99166.50;;;23.03;35.83
34566;BME280;20803;42.676;26.348;2022-10-26T14:48:31;99164.16;;;23.01;36.22
34566;BME280;20803;42.676;26.348;2022-10-26T14:53:37;99171.34;;;22.73;36.94
34566;BME280;20803;42.676;26.348;2022-10-26T14:56:05;99172.13;;;22.74;36.56
34566;BME280;20803;42.676;26.348;2022-10-26T14:58:41;99172.41;;;22.76;36.51
34566;BME280;20803;42.676;26.348;2022-10-26T15:01:24;99171.06;;;22.62;37.09
34566;BME280;20803;42.676;26.348;2022-10-26T15:03:54;99178.59;;;22.65;37.05
34566;BME280;20803;42.676;26.348;2022-10-26T15:08:55;99191.88;;;22.59;37.20
34566;BME280;20803;42.676;26.348;2022-10-26T15:11:22;99175.53;;;22.54;38.02
34566;BME280;20803;42.676;26.348;2022-10-26T15:13:48;99181.13;;;22.39;38.00
34566;BME280;20803;42.676;26.348;2022-10-26T15:16:33;99181.13;;;22.39;38.10
34566;BME280;20803;42.676;26.348;2022-10-26T15:19:06;99180.34;;;22.39;37.62
34566;BME280;20803;42.676;26.348;2022-10-26T15:21:34;99195.03;;;22.28;38.14
34566;BME280;20803;42.676;26.348;2022-10-26T15:24:02;99205.34;;;22.16;38.72
34566;BME280;20803;42.676;26.348;2022-10-26T15:26:41;99193.69;;;22.14;39.10
34566;BME280;20803;42.676;26.348;2022-10-26T15:32:02;99206.66;;;21.97;39.27
34566;BME280;20803;42.676;26.348;2022-10-26T15:34:28;99208.72;;;21.97;39.21